Time;durP1;ratioP1;P1;durP2;ratioP2;P2;SDS_P1;SDS_P2;PMS_P1;PMS_P2;Temp;Humidity;BMP_temperature;BMP_pressure;BME280_temperature;BME280_humidity;BME280_pressure;Samples;Min_cycle;Max_cycle;Signal;HPM_P1;HPM_P2
2023/06/01 00:01:00;;;;;;;13.13;6.53;;;12.60;99.90;;;;;;5030385;28;20144;-52
2023/06/01 00:03:26;;;;;;;17.42;5.72;;;12.60;99.90;;;;;;5030979;28;20097;-54
2023/06/01 00:05:52;;;;;;;22.55;6.55;;;12.60;99.90;;;;;;5038830;28;20379;-52
2023/06/01 00:08:17;;;;;;;15.55;6.15;;;12.60;99.90;;;;;;5048515;28;20048;-53
2023/06/01 00:10:43;;;;;;;13.95;6.18;;;12.60;99.90;;;;;;5032582;28;20052;-54
2023/06/01 00:13:08;;;;;;;15.48;5.80;;;12.60;99.90;;;;;;5042404;28;20037;-55
2023/06/01 00:15:35;;;;;;;16.37;5.87;;;12.70;99.90;;;;;;5033028;28;20064;-53
2023/06/01 00:18:01;;;;;;;;;;;12.70;99.90;;;;;;5045737;28;20379;-52
2023/06/01 00:20:28;;;;;;;16.77;6.35;;;12.70;99.90;;;;;;5035651;28;20079;-54
2023/06/01 00:22:55;;;;;;;14.63;5.93;;;12.70;99.90;;;;;;5038031;28;20041;-52
2023/06/01 00:25:21;;;;;;;9.40;5.63;;;12.70;99.90;;;;;;5037000;28;20030;-54
2023/06/01 00:27:46;;;;;;;13.43;7.30;;;12.70;99.90;;;;;;5030353;28;20449;-54
2023/06/01 00:30:12;;;;;;;17.23;6.53;;;12.70;99.90;;;;;;5039589;28;20188;-52
2023/06/01 00:32:38;;;;;;;10.48;5.60;;;12.70;99.90;;;;;;5038314;28;20041;-52
2023/06/01 00:35:04;;;;;;;15.43;6.18;;;12.70;99.90;;;;;;5041193;28;20512;-53
2023/06/01 00:37:30;;;;;;;15.27;6.07;;;12.70;99.90;;;;;;5045905;28;20104;-53
2023/06/01 00:39:55;;;;;;;15.40;6.40;;;12.70;99.90;;;;;;5041906;28;20379;-53
2023/06/01 00:42:21;;;;;;;12.70;5.90;;;12.80;99.90;;;;;;5031399;28;20036;-55
2023/06/01 00:44:46;;;;;;;12.15;5.05;;;12.70;99.90;;;;;;5034821;28;20048;-53
2023/06/01 00:47:12;;;;;;;12.60;5.70;;;12.70;99.90;;;;;;5045611;28;20064;-56
2023/06/01 00:49:38;;;;;;;9.23;5.25;;;12.70;99.90;;;;;;5034115;28;20545;-52
2023/06/01 00:52:03;;;;;;;11.73;5.53;;;12.70;99.90;;;;;;5047004;28;20036;-51
2023/06/01 00:54:29;;;;;;;13.77;6.38;;;12.70;99.90;;;;;;5046808;28;20280;-53
2023/06/01 00:56:55;;;;;;;15.68;6.55;;;12.70;99.90;;;;;;5030072;28;20041;-52
2023/06/01 00:59:20;;;;;;;11.40;5.40;;;12.70;99.90;;;;;;5029565;28;20041;-54
2023/06/01 01:01:46;;;;;;;15.10;7.10;;;12.70;99.90;;;;;;5047541;28;20043;-53
2023/06/01 01:04:14;;;;;;;12.88;6.53;;;12.70;99.90;;;;;;5048661;28;20033;-53
2023/06/01 01:06:56;;;;;;;20.38;6.60;;;12.70;99.90;;;;;;5031660;28;20309;-51
2023/06/01 01:09:49;;;;;;;15.05;5.60;;;12.70;99.90;;;;;;5046300;28;20090;-56
2023/06/01 01:12:26;;;;;;;21.15;5.82;;;12.70;99.90;;;;;;5034844;28;20067;-51
2023/06/01 01:14:57;;;;;;;13.93;5.50;;;12.70;99.90;;;;;;5045979;28;20094;-52
2023/06/01 01:17:32;;;;;;;13.43;5.80;;;12.70;99.90;;;;;;5031813;28;20037;-54
2023/06/01 01:20:28;;;;;;;12.60;5.20;;;12.70;99.90;;;;;;5047452;28;20033;-53
2023/06/01 01:23:13;;;;;;;18.35;5.97;;;12.70;99.90;;;;;;4986646;28;20054;-53
2023/06/01 01:25:45;;;;;;;11.45;5.07;;;12.70;99.90;;;;;;4986969;28;20430;-54
2023/06/01 01:28:35;;;;;;;14.45;7.00;;;12.70;99.90;;;;;;4986435;28;20060;-52
2023/06/01 01:31:03;;;;;;;11.77;5.35;;;12.70;99.90;;;;;;4985094;28;20053;-52
2023/06/01 01:33:31;;;;;;;14.63;5.88;;;12.70;99.90;;;;;;4987042;28;20448;-54
2023/06/01 01:35:57;;;;;;;11.02;5.18;;;12.70;99.90;;;;;;4986655;28;20365;-54
2023/06/01 01:38:23;;;;;;;13.15;5.65;;;12.70;99.90;;;;;;4986407;28;20084;-55
2023/06/01 01:40:52;;;;;;;18.70;5.73;;;12.70;99.90;;;;;;4986720;28;20047;-54
2023/06/01 01:43:18;;;;;;;15.18;5.88;;;12.70;99.90;;;;;;4986704;28;20413;-53
2023/06/01 01:45:45;;;;;;;;;;;12.70;99.90;;;;;;4986565;28;20121;-51
2023/06/01 01:48:31;;;;;;;12.43;4.78;;;12.70;99.90;;;;;;4986719;28;19918;-54
2023/06/01 01:51:02;;;;;;;17.38;5.50;;;12.70;99.90;;;;;;4987156;28;20096;-52
2023/06/01 01:53:29;;;;;;;10.52;5.85;;;12.70;99.90;;;;;;4987330;28;20554;-52
2023/06/01 01:55:56;;;;;;;13.95;5.30;;;12.70;99.90;;;;;;4986500;28;20077;-52
2023/06/01 01:58:23;;;;;;;16.58;5.97;;;12.70;99.90;;;;;;4994600;28;20042;-53
2023/06/01 02:00:49;;;;;;;11.18;6.30;;;12.70;99.90;;;;;;5037838;28;20470;-52
2023/06/01 02:03:16;;;;;;;14.63;7.07;;;12.60;99.90;;;;;;5041107;28;20045;-52
2023/06/01 02:05:43;;;;;;;16.65;6.20;;;12.60;99.90;;;;;;5030883;28;20090;-52
2023/06/01 02:08:08;;;;;;;;;;;12.60;99.90;;;;;;5046341;28;20040;-53
2023/06/01 02:10:34;;;;;;;19.38;5.90;;;12.60;99.90;;;;;;5044485;28;20189;-52
2023/06/01 02:13:00;;;;;;;17.08;5.90;;;12.50;99.90;;;;;;5030086;28;20069;-53
2023/06/01 02:15:25;;;;;;;15.43;5.97;;;12.50;99.90;;;;;;5029660;28;20083;-54
2023/06/01 02:17:53;;;;;;;17.10;6.85;;;12.50;99.90;;;;;;5045965;28;20029;-52
2023/06/01 02:20:19;;;;;;;12.95;6.13;;;12.50;99.90;;;;;;5029495;28;20486;-53
2023/06/01 02:22:45;;;;;;;17.42;6.30;;;12.50;99.90;;;;;;5044406;28;20068;-55
2023/06/01 02:25:10;;;;;;;16.33;6.55;;;12.50;99.90;;;;;;5049664;28;20521;-55
2023/06/01 02:27:36;;;;;;;17.27;6.78;;;12.50;99.90;;;;;;5036416;28;20486;-56
2023/06/01 02:30:03;;;;;;;17.23;6.90;;;12.50;99.90;;;;;;5033852;28;20030;-53
2023/06/01 02:32:30;;;;;;;14.70;6.45;;;12.50;99.90;;;;;;5044291;28;20041;-55
2023/06/01 02:34:56;;;;;;;13.15;6.00;;;12.40;99.90;;;;;;5050891;28;20033;-51
2023/06/01 02:37:21;;;;;;;17.58;6.93;;;12.40;99.90;;;;;;5039120;28;20063;-53
2023/06/01 02:39:47;;;;;;;12.80;5.60;;;12.40;99.90;;;;;;5033657;28;20048;-54
2023/06/01 02:42:13;;;;;;;17.90;7.13;;;12.40;99.90;;;;;;5041829;28;20049;-51
2023/06/01 02:44:39;;;;;;;10.85;5.65;;;12.40;99.90;;;;;;5050292;28;20111;-52
2023/06/01 02:47:05;;;;;;;14.40;6.90;;;12.40;99.90;;;;;;5039915;28;20055;-52
2023/06/01 02:49:30;;;;;;;;;;;12.40;99.90;;;;;;5049650;28;20060;-54
2023/06/01 02:51:56;;;;;;;20.70;6.57;;;12.40;99.90;;;;;;5044357;28;19918;-52
2023/06/01 02:54:22;;;;;;;16.65;6.30;;;12.40;99.90;;;;;;5032254;28;20045;-53
2023/06/01 02:56:47;;;;;;;12.60;5.97;;;12.40;99.90;;;;;;5040103;28;20506;-52
2023/06/01 02:59:13;;;;;;;18.77;6.03;;;12.40;99.90;;;;;;5044559;28;20041;-53
2023/06/01 03:01:39;;;;;;;8.70;6.35;;;12.30;99.90;;;;;;5033944;28;20040;-52
2023/06/01 03:04:04;;;;;;;16.88;6.95;;;12.30;99.90;;;;;;5040964;28;20041;-53
2023/06/01 03:06:37;;;;;;;13.52;7.03;;;12.30;99.90;;;;;;5048737;28;20175;-51
2023/06/01 03:09:03;;;;;;;13.57;5.55;;;12.30;99.90;;;;;;5035532;28;20568;-51
2023/06/01 03:11:29;;;;;;;11.35;6.35;;;12.30;99.90;;;;;;5033102;28;20053;-52
2023/06/01 03:13:56;;;;;;;12.93;6.43;;;12.30;99.90;;;;;;5050075;28;20045;-53
2023/06/01 03:16:25;;;;;;;14.23;7.05;;;12.30;99.90;;;;;;5046365;28;20045;-53
2023/06/01 03:18:52;;;;;;;13.65;6.72;;;12.20;99.90;;;;;;5044675;28;20491;-53
2023/06/01 03:21:17;;;;;;;20.60;7.13;;;12.30;99.90;;;;;;5049421;28;20044;-55
2023/06/01 03:23:43;;;;;;;14.05;5.82;;;12.20;99.90;;;;;;5033896;28;20045;-53
2023/06/01 03:26:18;;;;;;;12.15;5.80;;;12.20;99.90;;;;;;5031567;28;20041;-54
2023/06/01 03:28:44;;;;;;;19.67;6.65;;;12.20;99.90;;;;;;5030367;28;20040;-52
2023/06/01 03:31:11;;;;;;;12.93;6.13;;;12.20;99.90;;;;;;5043001;28;20049;-52
2023/06/01 03:33:37;;;;;;;11.88;5.18;;;12.20;99.90;;;;;;5034720;28;20080;-54
2023/06/01 03:36:04;;;;;;;;;;;12.20;99.90;;;;;;5032763;28;20065;-54
2023/06/01 03:38:30;;;;;;;10.80;5.43;;;12.20;99.90;;;;;;5043918;28;19917;-52
2023/06/01 03:40:55;;;;;;;13.80;6.38;;;12.20;99.90;;;;;;5048892;28;20427;-52
2023/06/01 03:43:21;;;;;;;15.57;6.63;;;12.10;99.90;;;;;;5037128;28;20399;-51
2023/06/01 03:45:47;;;;;;;13.13;5.72;;;12.10;99.90;;;;;;5032632;28;20033;-51
2023/06/01 03:48:13;;;;;;;11.23;5.60;;;12.10;99.90;;;;;;5040597;28;20424;-51
2023/06/01 03:50:38;;;;;;;12.15;5.57;;;12.10;99.90;;;;;;5038217;28;20191;-53
2023/06/01 03:53:04;;;;;;;12.30;6.63;;;12.10;99.90;;;;;;5037727;28;20514;-53
2023/06/01 03:55:30;;;;;;;11.50;5.47;;;12.10;99.90;;;;;;5047765;28;20347;-54
2023/06/01 03:57:56;;;;;;;10.40;5.60;;;12.10;99.90;;;;;;5042228;28;20040;-52
2023/06/01 04:00:24;;;;;;;15.50;5.50;;;12.10;99.90;;;;;;5030157;28;20501;-52
2023/06/01 04:02:53;;;;;;;10.48;5.53;;;12.10;99.90;;;;;;5038974;28;20056;-52
2023/06/01 04:05:20;;;;;;;13.25;4.88;;;12.10;99.90;;;;;;5048198;28;20047;-55
2023/06/01 04:07:50;;;;;;;10.93;4.88;;;12.10;99.90;;;;;;5043884;28;20461;-53
2023/06/01 04:10:16;;;;;;;8.30;5.00;;;12.10;99.90;;;;;;5032721;28;20494;-52
2023/06/01 04:12:46;;;;;;;11.32;5.50;;;12.00;99.90;;;;;;5045501;28;20121;-53
2023/06/01 04:15:14;;;;;;;11.60;5.00;;;12.00;99.90;;;;;;5032616;28;20104;-52
2023/06/01 04:17:41;;;;;;;13.68;5.00;;;12.00;99.90;;;;;;5033519;28;20408;-53
2023/06/01 04:20:12;;;;;;;11.57;5.07;;;12.10;99.90;;;;;;5046367;28;20401;-52
2023/06/01 04:22:38;;;;;;;9.27;4.03;;;12.00;99.90;;;;;;5044852;28;20711;-53
2023/06/01 04:25:09;;;;;;;10.70;4.63;;;12.10;99.90;;;;;;5030091;28;20041;-54
2023/06/01 04:27:38;;;;;;;14.23;5.38;;;12.00;99.90;;;;;;5042904;28;20129;-55
2023/06/01 04:30:07;;;;;;;8.07;4.53;;;12.00;99.90;;;;;;5030683;28;20041;-52
2023/06/01 04:32:34;;;;;;;11.65;5.25;;;12.10;99.90;;;;;;5034047;28;20041;-52
2023/06/01 04:35:04;;;;;;;10.25;5.03;;;12.10;99.90;;;;;;5046309;28;20363;-52
2023/06/01 04:37:34;;;;;;;13.80;4.40;;;12.10;99.90;;;;;;5045973;28;20033;-54
2023/06/01 04:40:00;;;;;;;9.93;4.70;;;12.10;99.90;;;;;;5048210;28;20045;-52
2023/06/01 04:42:25;;;;;;;;;;;12.10;99.90;;;;;;5038388;28;20477;-54
2023/06/01 04:44:51;;;;;;;8.75;4.18;;;12.10;99.90;;;;;;5029836;28;20063;-54
2023/06/01 04:47:17;;;;;;;12.40;4.47;;;12.20;99.90;;;;;;5030022;28;20118;-51
2023/06/01 04:49:43;;;;;;;10.30;3.83;;;12.30;99.90;;;;;;5046353;28;20279;-54
2023/06/01 04:52:12;;;;;;;9.27;4.68;;;12.20;99.90;;;;;;5041144;28;20053;-52
2023/06/01 04:54:37;;;;;;;13.38;4.80;;;12.20;99.90;;;;;;5045608;28;20044;-54
2023/06/01 04:57:06;;;;;;;17.98;5.53;;;12.30;99.90;;;;;;5048052;28;20047;-52
2023/06/01 04:59:32;;;;;;;9.35;5.53;;;12.20;99.90;;;;;;5033685;28;20041;-52
2023/06/01 05:01:58;;;;;;;15.32;5.28;;;12.20;99.90;;;;;;5031239;28;20044;-53
2023/06/01 05:04:23;;;;;;;8.95;4.57;;;12.20;99.90;;;;;;5042530;28;20043;-53
2023/06/01 05:06:49;;;;;;;9.95;4.78;;;12.20;99.90;;;;;;5048070;28;20390;-52
2023/06/01 05:09:15;;;;;;;9.32;4.35;;;12.30;99.90;;;;;;5035335;28;20037;-55
2023/06/01 05:11:40;;;;;;;7.03;3.70;;;12.20;99.90;;;;;;5031016;28;20049;-51
2023/06/01 05:14:07;;;;;;;10.80;3.63;;;12.20;99.90;;;;;;5038848;28;20132;-53
2023/06/01 05:16:33;;;;;;;15.20;3.95;;;12.20;99.90;;;;;;5043003;28;20446;-55
2023/06/01 05:18:58;;;;;;;7.28;3.85;;;12.20;99.90;;;;;;5036074;28;20486;-53
2023/06/01 05:21:24;;;;;;;10.35;3.83;;;12.30;99.90;;;;;;5035254;28;20087;-51
2023/06/01 05:23:50;;;;;;;10.27;3.53;;;12.30;99.90;;;;;;5035883;28;20037;-52
2023/06/01 05:26:15;;;;;;;8.75;3.40;;;12.20;99.90;;;;;;5048355;28;20070;-52
2023/06/01 05:28:42;;;;;;;11.20;3.77;;;12.20;99.90;;;;;;5042784;28;20120;-53
2023/06/01 05:31:07;;;;;;;12.73;3.13;;;12.30;99.90;;;;;;5038705;28;20345;-52
2023/06/01 05:33:33;;;;;;;18.17;4.70;;;12.20;99.90;;;;;;5044301;28;20175;-51
2023/06/01 05:35:59;;;;;;;11.80;3.55;;;12.20;99.90;;;;;;5029870;28;20041;-51
2023/06/01 05:38:24;;;;;;;12.05;4.43;;;12.20;99.90;;;;;;5030500;28;20037;-51
2023/06/01 05:40:50;;;;;;;6.68;3.40;;;12.30;99.90;;;;;;5046090;28;20163;-53
2023/06/01 05:43:16;;;;;;;7.05;4.07;;;12.30;99.90;;;;;;5047728;28;20069;-55
2023/06/01 05:45:41;;;;;;;11.70;4.40;;;12.30;99.90;;;;;;5047612;28;20025;-52
2023/06/01 05:48:07;;;;;;;12.65;5.25;;;12.30;99.90;;;;;;5047126;28;20033;-51
2023/06/01 05:50:32;;;;;;;6.85;3.70;;;12.30;99.90;;;;;;5046309;28;20065;-52
2023/06/01 05:52:58;;;;;;;8.27;4.23;;;12.30;99.90;;;;;;5047699;28;20513;-52
2023/06/01 05:55:24;;;;;;;10.48;4.22;;;12.40;99.90;;;;;;5032793;28;20288;-53
2023/06/01 05:57:49;;;;;;;11.40;5.05;;;12.30;99.90;;;;;;5029467;28;20037;-52
2023/06/01 06:00:16;;;;;;;13.38;4.30;;;12.40;99.90;;;;;;5042228;28;20126;-52
2023/06/01 06:02:45;;;;;;;12.52;4.72;;;12.40;99.90;;;;;;5049210;28;20504;-55
2023/06/01 06:05:11;;;;;;;11.50;4.35;;;12.40;99.90;;;;;;5040853;28;20166;-52
2023/06/01 06:07:37;;;;;;;;;;;12.40;99.90;;;;;;5033769;28;20045;-52
2023/06/01 06:10:03;;;;;;;13.18;4.93;;;12.40;99.90;;;;;;5044234;28;20313;-51
2023/06/01 06:12:29;;;;;;;14.15;4.95;;;12.40;99.90;;;;;;5043803;28;20119;-53
2023/06/01 06:14:55;;;;;;;8.88;4.55;;;12.50;99.90;;;;;;5042849;28;20538;-51
2023/06/01 06:17:21;;;;;;;13.45;5.10;;;12.50;99.90;;;;;;5033158;28;20116;-54
2023/06/01 06:19:47;;;;;;;12.93;5.63;;;12.40;99.90;;;;;;5038499;28;20037;-51
2023/06/01 06:22:13;;;;;;;10.95;4.45;;;12.50;99.90;;;;;;5049642;28;20041;-50
2023/06/01 06:24:39;;;;;;;12.57;5.05;;;12.50;99.90;;;;;;5045850;28;20677;-51
2023/06/01 06:27:05;;;;;;;10.25;4.68;;;12.60;99.90;;;;;;5039363;28;20409;-51
2023/06/01 06:29:31;;;;;;;13.80;5.95;;;12.50;99.90;;;;;;5047311;28;20140;-50
2023/06/01 06:31:57;;;;;;;7.10;4.00;;;12.60;99.90;;;;;;5048982;28;20116;-50
2023/06/01 06:34:23;;;;;;;19.90;5.53;;;12.60;99.90;;;;;;5049579;28;20040;-50
2023/06/01 06:36:48;;;;;;;9.03;4.23;;;12.60;99.90;;;;;;5031132;28;20112;-48
2023/06/01 06:39:15;;;;;;;10.95;4.20;;;12.50;99.90;;;;;;5031893;28;20315;-49
2023/06/01 06:41:41;;;;;;;6.82;3.03;;;12.60;99.90;;;;;;5046911;28;20473;-47
2023/06/01 06:44:07;;;;;;;9.95;3.35;;;12.60;99.90;;;;;;5041035;28;20040;-50
2023/06/01 06:46:33;;;;;;;11.18;3.60;;;12.60;99.90;;;;;;5049655;28;20060;-52
2023/06/01 06:48:59;;;;;;;9.20;3.70;;;12.60;99.90;;;;;;5036955;28;20048;-51
2023/06/01 06:51:24;;;;;;;8.02;3.00;;;12.70;99.90;;;;;;5048888;28;20047;-53
2023/06/01 06:53:50;;;;;;;7.68;3.03;;;12.60;99.90;;;;;;5031468;28;20045;-54
2023/06/01 06:56:16;;;;;;;7.28;3.17;;;12.60;99.90;;;;;;5043096;28;20516;-54
2023/06/01 06:58:42;;;;;;;5.25;2.22;;;12.60;99.90;;;;;;5042575;28;20095;-54
2023/06/01 07:01:07;;;;;;;5.15;2.22;;;12.60;99.90;;;;;;5041860;28;20080;-55
2023/06/01 07:03:33;;;;;;;8.32;2.85;;;12.60;99.90;;;;;;5042016;28;20453;-54
2023/06/01 07:05:59;;;;;;;7.47;2.70;;;12.70;99.90;;;;;;5047508;28;20465;-51
2023/06/01 07:08:25;;;;;;;7.38;3.20;;;12.60;99.90;;;;;;5043029;28;20033;-55
2023/06/01 07:10:52;;;;;;;7.07;3.38;;;12.70;99.90;;;;;;5041061;28;20513;-52
2023/06/01 07:13:18;;;;;;;5.93;2.97;;;12.70;99.90;;;;;;5049848;28;20486;-52
2023/06/01 07:15:43;;;;;;;4.73;2.33;;;12.80;99.90;;;;;;5042558;28;20091;-52
2023/06/01 07:18:09;;;;;;;8.10;2.88;;;12.80;99.90;;;;;;5034103;28;20788;-55
2023/06/01 07:20:35;;;;;;;9.00;2.47;;;12.80;99.90;;;;;;5034876;28;20086;-52
2023/06/01 07:23:00;;;;;;;7.70;2.47;;;12.90;99.90;;;;;;5032040;28;20044;-53
2023/06/01 07:25:26;;;;;;;9.32;3.53;;;13.00;99.90;;;;;;5035413;28;20108;-56
2023/06/01 07:27:52;;;;;;;5.82;1.88;;;13.00;99.90;;;;;;5049437;28;20044;-53
2023/06/01 07:30:18;;;;;;;5.30;1.65;;;13.00;99.90;;;;;;5037098;28;20098;-54
2023/06/01 07:32:43;;;;;;;3.85;1.55;;;13.10;99.90;;;;;;5048258;28;20116;-53
2023/06/01 07:35:09;;;;;;;9.63;2.35;;;13.10;99.90;;;;;;5039915;28;20420;-54
2023/06/01 07:37:35;;;;;;;2.63;1.27;;;13.20;99.90;;;;;;5047882;28;20275;-53
2023/06/01 07:40:01;;;;;;;8.10;2.78;;;13.20;99.90;;;;;;5033068;28;20563;-54
2023/06/01 07:42:27;;;;;;;12.20;2.35;;;13.20;99.90;;;;;;5036691;28;20127;-52
2023/06/01 07:44:53;;;;;;;4.13;2.10;;;13.30;99.90;;;;;;5034069;28;20038;-55
2023/06/01 07:47:18;;;;;;;3.65;2.00;;;13.20;99.90;;;;;;5033871;28;20092;-52
2023/06/01 07:49:44;;;;;;;6.10;2.00;;;13.20;99.90;;;;;;5045181;28;20444;-51
2023/06/01 07:52:10;;;;;;;4.85;2.53;;;13.30;99.90;;;;;;5047677;28;20092;-52
2023/06/01 07:54:37;;;;;;;2.53;2.00;;;13.30;99.90;;;;;;5037409;28;20069;-52
2023/06/01 07:57:06;;;;;;;2.80;1.95;;;13.30;99.90;;;;;;5045889;28;20045;-52
2023/06/01 07:59:32;;;;;;;5.47;2.22;;;13.30;99.90;;;;;;5039985;28;20033;-52
2023/06/01 08:01:59;;;;;;;2.45;1.40;;;13.30;99.90;;;;;;5042417;28;20077;-53
2023/06/01 08:04:26;;;;;;;4.35;2.03;;;13.30;99.90;;;;;;5048209;28;20416;-54
2023/06/01 08:06:55;;;;;;;4.80;2.53;;;13.30;99.90;;;;;;5035631;28;20524;-51
2023/06/01 08:09:23;;;;;;;2.90;1.67;;;13.30;99.90;;;;;;5030728;28;20073;-52
2023/06/01 08:11:49;;;;;;;7.15;2.00;;;13.30;99.90;;;;;;5038255;28;20041;-51
2023/06/01 08:14:15;;;;;;;4.70;2.22;;;13.40;99.90;;;;;;5030534;28;20490;-52
2023/06/01 08:16:41;;;;;;;3.92;1.88;;;13.40;99.90;;;;;;5043164;28;20037;-53
2023/06/01 08:19:07;;;;;;;;;;;13.40;99.90;;;;;;5048462;28;20037;-51
2023/06/01 08:21:34;;;;;;;2.92;1.98;;;13.40;99.90;;;;;;5042005;28;19924;-53
2023/06/01 08:24:01;;;;;;;8.30;3.10;;;13.40;99.90;;;;;;5031610;28;20091;-52
2023/06/01 08:26:27;;;;;;;12.13;3.28;;;13.40;99.90;;;;;;5035481;28;20457;-53
2023/06/01 08:28:53;;;;;;;;;;;13.40;99.90;;;;;;5047005;28;20296;-52
2023/06/01 08:31:23;;;;;;;8.07;3.03;;;13.40;99.90;;;;;;5034060;28;19994;-52
2023/06/01 08:33:53;;;;;;;6.82;3.15;;;13.40;99.90;;;;;;5045420;28;20037;-51
2023/06/01 08:36:19;;;;;;;4.35;2.17;;;13.40;99.90;;;;;;5039225;28;20069;-53
2023/06/01 08:38:45;;;;;;;5.10;2.85;;;13.50;99.90;;;;;;5038261;28;20051;-53
2023/06/01 08:41:47;;;;;;;2.53;1.58;;;13.50;99.90;;;;;;5044407;28;20033;-51
2023/06/01 08:44:15;;;;;;;8.18;1.83;;;13.60;99.90;;;;;;5044439;28;20051;-52
2023/06/01 08:46:41;;;;;;;4.35;2.15;;;13.60;99.90;;;;;;5042555;28;20033;-53
2023/06/01 08:49:10;;;;;;;3.10;1.83;;;13.60;99.90;;;;;;5030006;28;20048;-52
2023/06/01 08:51:38;;;;;;;1.95;1.33;;;13.70;99.90;;;;;;5037901;28;20033;-52
2023/06/01 08:54:05;;;;;;;3.83;1.50;;;13.80;99.90;;;;;;5042172;28;20445;-52
2023/06/01 08:56:31;;;;;;;3.75;1.65;;;13.80;99.90;;;;;;5032148;28;20095;-53
2023/06/01 08:58:57;;;;;;;3.53;1.65;;;13.90;99.90;;;;;;5043306;28;20053;-52
2023/06/01 09:01:23;;;;;;;3.33;1.17;;;13.90;99.90;;;;;;5030401;28;20512;-51
2023/06/01 09:03:50;;;;;;;2.90;1.45;;;14.00;99.90;;;;;;5047043;28;20083;-52
2023/06/01 09:06:16;;;;;;;5.80;1.05;;;14.00;99.90;;;;;;5047992;28;20397;-51
2023/06/01 09:08:41;;;;;;;3.28;1.10;;;14.10;99.90;;;;;;5030540;28;20033;-52
2023/06/01 09:11:07;;;;;;;6.70;1.27;;;14.10;99.90;;;;;;5029649;28;20103;-53
2023/06/01 09:13:33;;;;;;;3.50;1.23;;;14.10;99.90;;;;;;5042248;28;20484;-52
2023/06/01 09:15:59;;;;;;;;;;;14.20;99.90;;;;;;5048640;28;20064;-51
2023/06/01 09:18:25;;;;;;;4.63;1.55;;;14.20;99.90;;;;;;5034645;28;20373;-52
2023/06/01 09:20:53;;;;;;;6.10;1.63;;;14.20;99.90;;;;;;5040867;28;20045;-52
2023/06/01 09:23:26;;;;;;;4.75;1.48;;;14.30;99.90;;;;;;5040007;28;20033;-55
2023/06/01 09:26:12;;;;;;;5.88;1.90;;;14.30;99.90;;;;;;5029570;28;20034;-53
2023/06/01 09:28:55;;;;;;;4.22;1.50;;;14.40;99.90;;;;;;5042390;28;20072;-52
2023/06/01 09:31:41;;;;;;;6.00;1.88;;;14.50;99.90;;;;;;5045519;28;20129;-53
2023/06/01 09:34:12;;;;;;;4.13;1.65;;;14.60;99.90;;;;;;5047502;28;20376;-52
2023/06/01 09:36:38;;;;;;;5.85;1.40;;;14.60;99.90;;;;;;5052039;28;20037;-52
2023/06/01 09:39:09;;;;;;;2.05;0.98;;;14.70;99.90;;;;;;5035252;28;20049;-53
2023/06/01 09:41:53;;;;;;;4.10;1.38;;;14.70;99.90;;;;;;5047028;28;20409;-52
2023/06/01 09:44:45;;;;;;;1.35;0.88;;;14.70;99.90;;;;;;5034730;28;20045;-53
2023/06/01 09:47:14;;;;;;;2.08;1.15;;;14.80;99.90;;;;;;5045996;28;20585;-52
2023/06/01 09:49:41;;;;;;;2.92;1.30;;;14.80;99.90;;;;;;5051268;28;20438;-52
2023/06/01 09:52:07;;;;;;;2.90;1.27;;;14.80;99.90;;;;;;5040111;28;20516;-54
2023/06/01 09:54:37;;;;;;;3.25;0.95;;;14.80;99.90;;;;;;5049172;28;20045;-53
2023/06/01 09:57:04;;;;;;;5.47;1.00;;;14.90;99.90;;;;;;5048998;28;20037;-53
2023/06/01 09:59:37;;;;;;;4.15;1.50;;;14.90;99.90;;;;;;5046839;28;20086;-52
2023/06/01 10:02:04;;;;;;;5.35;1.92;;;14.90;99.90;;;;;;5048931;28;20040;-52
2023/06/01 10:04:30;;;;;;;2.47;1.42;;;15.00;99.90;;;;;;5036257;28;20052;-54
2023/06/01 10:06:57;;;;;;;4.05;2.38;;;15.00;99.90;;;;;;5043660;28;20037;-55
2023/06/01 10:09:24;;;;;;;2.83;1.40;;;15.00;99.90;;;;;;5048187;28;20465;-50
2023/06/01 10:11:54;;;;;;;4.00;1.52;;;15.10;99.90;;;;;;5036397;28;20422;-58
2023/06/01 10:14:22;;;;;;;3.38;2.20;;;15.10;99.90;;;;;;5045296;28;20052;-59
2023/06/01 10:16:52;;;;;;;1.88;1.10;;;15.10;99.90;;;;;;5051102;28;20041;-57
2023/06/01 10:19:21;;;;;;;5.18;1.70;;;15.10;99.90;;;;;;5035591;28;20044;-57
2023/06/01 10:21:47;;;;;;;3.92;1.60;;;15.10;99.90;;;;;;5033930;28;20033;-58
2023/06/01 10:24:15;;;;;;;8.88;1.73;;;15.00;99.90;;;;;;5037212;28;20046;-57
2023/06/01 10:26:56;;;;;;;5.82;1.40;;;15.00;99.90;;;;;;5032703;28;20030;-57
2023/06/01 10:29:24;;;;;;;5.65;1.20;;;15.10;99.90;;;;;;5049850;28;20490;-61
2023/06/01 10:31:50;;;;;;;3.63;1.05;;;15.10;99.90;;;;;;5047196;28;20138;-60
2023/06/01 10:34:45;;;;;;;3.72;1.33;;;15.10;99.90;;;;;;5036800;28;20049;-60
2023/06/01 10:37:11;;;;;;;2.50;1.50;;;15.10;99.90;;;;;;5048537;28;20115;-60
2023/06/01 10:39:37;;;;;;;;;;;15.10;99.90;;;;;;5046063;28;20437;-61
2023/06/01 10:42:14;;;;;;;2.13;0.80;;;15.00;99.90;;;;;;5039742;28;19927;-59
2023/06/01 10:44:40;;;;;;;12.25;1.20;;;15.00;99.90;;;;;;5040276;28;20029;-59
2023/06/01 10:47:35;;;;;;;4.53;0.70;;;15.00;99.90;;;;;;5040498;28;20111;-60
2023/06/01 10:50:00;;;;;;;0.88;0.60;;;14.90;99.90;;;;;;5036079;28;20124;-59
2023/06/01 10:52:30;;;;;;;6.60;0.85;;;15.00;99.90;;;;;;5049038;28;20557;-58
2023/06/01 10:55:15;;;;;;;1.42;0.60;;;15.00;99.90;;;;;;5046729;28;20774;-59
2023/06/01 10:57:45;;;;;;;1.55;0.65;;;15.00;99.90;;;;;;5047653;28;20486;-59
2023/06/01 11:00:26;;;;;;;2.53;0.55;;;15.00;99.90;;;;;;5037687;28;20047;-58
2023/06/01 11:02:53;;;;;;;2.50;0.52;;;15.00;99.90;;;;;;5038936;28;20037;-56
2023/06/01 11:05:41;;;;;;;1.70;0.60;;;15.10;99.90;;;;;;5032189;28;20126;-56
2023/06/01 11:08:19;;;;;;;;;;;15.10;99.90;;;;;;5032882;28;20099;-59
2023/06/01 11:10:58;;;;;;;2.88;1.40;;;15.10;99.90;;;;;;5048829;28;19917;-58
2023/06/01 11:13:35;;;;;;;4.00;1.60;;;15.20;99.90;;;;;;5047034;28;20077;-58
2023/06/01 11:18:41;;;;;;;8.77;3.17;;;15.10;99.90;;;;;;5034010;28;20069;-59
2023/06/01 11:21:31;;;;;;;10.20;2.95;;;15.10;99.90;;;;;;5046314;28;20048;-59
2023/06/01 11:23:58;;;;;;;5.72;3.13;;;15.00;99.90;;;;;;5035003;28;20110;-58
2023/06/01 11:26:30;;;;;;;8.63;3.08;;;15.00;99.90;;;;;;5048657;28;20037;-58
2023/06/01 11:29:06;;;;;;;8.98;3.55;;;15.00;99.90;;;;;;5045507;28;20038;-58
2023/06/01 11:31:34;;;;;;;;;;;14.90;99.90;;;;;;5032747;28;20541;-55
2023/06/01 11:34:01;;;;;;;10.23;3.55;;;14.90;99.90;;;;;;5042610;28;19923;-56
2023/06/01 11:36:26;;;;;;;9.43;3.50;;;14.90;99.90;;;;;;5041714;28;20063;-56
2023/06/01 11:38:55;;;;;;;9.77;3.45;;;14.90;99.90;;;;;;5037770;28;20029;-54
2023/06/01 11:41:23;;;;;;;7.72;3.55;;;14.80;99.90;;;;;;5037981;28;20508;-54
2023/06/01 11:43:56;;;;;;;7.43;3.10;;;14.80;99.90;;;;;;5048990;28;20539;-58
2023/06/01 11:46:23;;;;;;;10.18;2.63;;;14.80;99.90;;;;;;5031690;28;20044;-56
2023/06/01 11:49:04;;;;;;;8.02;2.83;;;14.80;99.90;;;;;;5031570;28;20037;-57
2023/06/01 11:51:35;;;;;;;12.00;3.08;;;14.80;99.90;;;;;;5032422;28;20045;-56
2023/06/01 11:54:03;;;;;;;10.18;2.90;;;14.90;99.90;;;;;;5033239;28;20465;-56
2023/06/01 11:56:34;;;;;;;6.15;3.10;;;14.90;99.90;;;;;;5051390;28;20041;-56
2023/06/01 11:59:00;;;;;;;5.55;2.67;;;14.90;99.90;;;;;;5050091;28;20555;-56
2023/06/01 12:01:27;;;;;;;8.27;2.67;;;15.00;99.90;;;;;;5031262;28;20038;-58
2023/06/01 12:03:54;;;;;;;6.55;2.10;;;15.00;99.90;;;;;;5048835;28;20037;-56
2023/06/01 12:06:27;;;;;;;5.93;1.88;;;15.10;99.90;;;;;;5031361;28;20475;-58
2023/06/01 12:08:54;;;;;;;6.97;2.15;;;15.10;99.90;;;;;;5030739;28;20048;-56
2023/06/01 12:11:26;;;;;;;8.82;2.35;;;15.10;99.90;;;;;;5049632;28;20045;-58
2023/06/01 12:13:53;;;;;;;9.73;2.55;;;15.20;99.90;;;;;;5049192;28;20086;-56
2023/06/01 12:16:18;;;;;;;8.25;2.47;;;15.20;99.90;;;;;;5032556;28;20041;-56
2023/06/01 12:18:44;;;;;;;8.70;2.33;;;15.20;99.90;;;;;;5030076;28;20052;-54
2023/06/01 12:21:13;;;;;;;;;;;15.20;99.90;;;;;;5047633;28;20037;-58
2023/06/01 12:23:39;;;;;;;16.15;2.95;;;15.30;99.90;;;;;;5048881;28;19917;-54
2023/06/01 12:26:06;;;;;;;8.15;2.42;;;15.30;99.90;;;;;;5046851;28;20040;-57
2023/06/01 12:28:54;;;;;;;9.60;2.30;;;15.30;99.90;;;;;;5050076;28;20502;-56
2023/06/01 12:31:20;;;;;;;5.63;2.33;;;15.30;99.90;;;;;;5033700;28;20073;-56
2023/06/01 12:33:48;;;;;;;4.85;2.00;;;15.40;99.90;;;;;;5033803;28;20547;-57
2023/06/01 12:36:33;;;;;;;8.05;2.60;;;15.40;99.90;;;;;;5035672;28;20047;-56
2023/06/01 12:38:59;;;;;;;4.68;1.90;;;15.40;99.90;;;;;;5030181;28;20045;-58
2023/06/01 12:41:26;;;;;;;3.72;1.73;;;15.40;99.90;;;;;;5045818;28;20401;-56
2023/06/01 12:43:52;;;;;;;9.82;2.15;;;15.40;99.90;;;;;;5048462;28;20112;-57
2023/06/01 12:46:21;;;;;;;;;;;15.50;99.90;;;;;;5036081;28;20099;-58
2023/06/01 12:48:48;;;;;;;8.27;2.05;;;15.50;99.90;;;;;;5048543;28;20395;-53
2023/06/01 12:51:14;;;;;;;11.73;2.80;;;15.60;99.90;;;;;;5036979;28;20064;-56
2023/06/01 12:53:39;;;;;;;;;;;15.60;99.90;;;;;;5030685;28;20525;-57